Time;durP1;ratioP1;P1;durP2;ratioP2;P2;SDS_P1;SDS_P2;PMS_P1;PMS_P2;Temp;Humidity;BMP_temperature;BMP_pressure;BME280_temperature;BME280_humidity;BME280_pressure;Samples;Min_cycle;Max_cycle;Signal;HPM_P1;HPM_P2
2021/04/23 00:01:40;;;;;;;;;;;;;;;10.40;63.58;100186.27;1785010;80;22690;-59
2021/04/23 00:04:09;;;;;;;;;;;;;;;10.39;63.57;100194.53;1784318;80;20202;-59
2021/04/23 00:06:39;;;;;;;;;;;;;;;10.36;63.61;100203.02;1786012;79;20175;-58
2021/04/23 00:09:16;;;;;;;;;;;;;;;10.32;63.62;100189.19;1789600;79;20139;-58
2021/04/23 00:11:49;;;;;;;;;;;;;;;10.30;63.65;100193.96;1784526;80;20175;-60
2021/04/23 00:14:18;;;;;;;;;;;;;;;10.28;63.73;100185.34;1784457;80;21193;-59
2021/04/23 00:16:46;;;;;;;;;;;;;;;10.26;63.78;100195.44;1783801;79;20151;-58
2021/04/23 00:19:17;;;;;;;;;;;;;;;10.25;63.83;100186.59;1788323;79;20494;-59
2021/04/23 00:21:45;;;;;;;;;;;;;;;10.25;63.83;100180.42;1806325;79;20529;-59
2021/04/23 00:24:13;;;;;;;;;;;;;;;10.23;63.80;100172.61;1804829;79;20219;-59
2021/04/23 00:26:41;;;;;;;;;;;;;;;10.19;63.89;100179.44;1797815;79;21198;-60
2021/04/23 00:29:09;;;;;;;;;;;;;;;10.12;64.01;100168.77;1805547;79;20216;-58
2021/04/23 00:31:38;;;;;;;;;;;;;;;10.03;64.24;100161.25;1738800;79;20111;-59
2021/04/23 00:34:05;;;;;;;;;;;;;;;9.94;64.51;100164.19;1806027;79;20213;-59
2021/04/23 00:36:33;;;;;;;;;;;;;;;9.90;64.70;100165.66;1806803;79;20240;-59
2021/04/23 00:39:01;;;;;;;;;;;;;;;9.84;64.90;100161.19;1805824;79;21140;-58
2021/04/23 00:41:32;;;;;;;;;;;;;;;9.77;65.10;100151.85;1795696;79;20135;-58
2021/04/23 00:44:00;;;;;;;;;;;;;;;9.73;65.22;100152.02;1794820;79;20278;-58
2021/04/23 00:46:29;;;;;;;;;;;;;;;9.72;65.37;100158.92;1789743;79;20132;-58
2021/04/23 00:48:58;;;;;;;;;;;;;;;9.72;65.43;100157.05;1794021;79;20232;-58
2021/04/23 00:51:31;;;;;;;;;;;;;;;9.72;65.48;100158.92;1786096;79;21208;-58
2021/04/23 00:53:59;;;;;;;;;;;;;;;9.67;65.58;100155.53;1771367;79;20177;-59
2021/04/23 00:56:34;;;;;;;;;;;;;;;9.62;65.70;100156.19;1789427;79;20283;-58
2021/04/23 00:59:03;;;;;;;;;;;;;;;9.60;65.86;100155.59;1789628;79;20276;-58
2021/04/23 01:01:33;;;;;;;;;;;;;;;9.59;66.08;100148.59;1793921;79;20478;-61
2021/04/23 01:04:01;;;;;;;;;;;;;;;9.58;66.22;100144.27;1793191;79;21376;-59
2021/04/23 01:06:31;;;;;;;;;;;;;;;9.58;66.41;100142.93;1792697;79;20505;-59
2021/04/23 01:09:03;;;;;;;;;;;;;;;9.57;66.48;100157.38;1793041;79;20482;-60
2021/04/23 01:11:30;;;;;;;;;;;;;;;9.57;66.62;100150.68;1785287;79;20310;-59
2021/04/23 01:13:58;;;;;;;;;;;;;;;9.57;66.71;100148.00;1784822;79;20175;-59
2021/04/23 01:16:26;;;;;;;;;;;;;;;9.57;66.78;100142.66;1763634;79;21160;-60
2021/04/23 01:18:53;;;;;;;;;;;;;;;9.55;66.91;100151.39;1789340;79;20235;-59
2021/04/23 01:21:25;;;;;;;;;;;;;;;9.53;67.12;100150.80;1769217;79;20478;-58
2021/04/23 01:23:54;;;;;;;;;;;;;;;9.53;67.24;100150.00;1786041;79;20614;-59
2021/04/23 01:26:25;;;;;;;;;;;;;;;9.53;67.33;100144.11;1789924;79;20245;-60
2021/04/23 01:28:53;;;;;;;;;;;;;;;9.53;67.38;100137.95;1791763;79;21198;-59
2021/04/23 01:31:22;;;;;;;;;;;;;;;9.54;67.45;100136.89;1765180;79;20243;-59
2021/04/23 01:33:52;;;;;;;;;;;;;;;9.54;67.53;100135.06;1791789;79;20556;-58
2021/04/23 01:36:21;;;;;;;;;;;;;;;9.56;67.58;100152.23;1794061;79;20254;-59
2021/04/23 01:38:49;;;;;;;;;;;;;;;9.57;67.59;100150.68;1792556;79;20110;-58
2021/04/23 01:41:19;;;;;;;;;;;;;;;9.62;67.59;100153.52;1794446;78;21200;-57
2021/04/23 01:43:48;;;;;;;;;;;;;;;9.69;67.63;100136.58;1793553;79;20151;-59
2021/04/23 01:46:16;;;;;;;;;;;;;;;9.76;67.58;100125.30;1768084;79;20156;-60
2021/04/23 01:48:44;;;;;;;;;;;;;;;9.82;67.54;100119.91;1798098;79;20141;-59
2021/04/23 01:51:13;;;;;;;;;;;;;;;9.88;67.51;100105.33;1800982;79;20285;-59
2021/04/23 01:53:47;;;;;;;;;;;;;;;9.95;67.48;100107.43;1801047;79;21190;-59
2021/04/23 01:56:15;;;;;;;;;;;;;;;10.00;67.37;100083.50;1798513;79;20148;-58
2021/04/23 01:58:42;;;;;;;;;;;;;;;10.06;67.30;100079.12;1803884;79;20690;-59
2021/04/23 02:01:12;;;;;;;;;;;;;;;10.08;67.28;100083.20;1803296;79;20129;-59
2021/04/23 02:03:41;;;;;;;;;;;;;;;10.06;67.32;100104.03;1801665;79;20494;-60
2021/04/23 02:06:10;;;;;;;;;;;;;;;10.02;67.44;100098.81;1798490;79;22296;-58
2021/04/23 02:08:38;;;;;;;;;;;;;;;10.02;67.73;100102.83;1803035;79;20240;-59
2021/04/23 02:11:09;;;;;;;;;;;;;;;10.02;67.90;100092.65;1801604;79;20313;-59
2021/04/23 02:13:39;;;;;;;;;;;;;;;9.99;68.01;100089.36;1803008;79;20202;-58
2021/04/23 02:16:07;;;;;;;;;;;;;;;9.95;68.09;100092.70;1798224;79;20228;-58
2021/04/23 02:18:35;;;;;;;;;;;;;;;9.93;68.21;100104.16;1802399;79;21391;-59
2021/04/23 02:21:05;;;;;;;;;;;;;;;9.91;68.25;100100.87;1804229;79;20216;-60
2021/04/23 02:23:33;;;;;;;;;;;;;;;9.88;68.40;100102.65;1798916;79;20218;-59
2021/04/23 02:26:01;;;;;;;;;;;;;;;9.86;68.51;100106.89;1801453;79;20141;-58
2021/04/23 02:28:29;;;;;;;;;;;;;;;9.88;68.61;100110.18;1801618;79;20274;-58
2021/04/23 02:31:03;;;;;;;;;;;;;;;9.90;68.71;100118.00;1804105;79;22194;-59
2021/04/23 02:33:31;;;;;;;;;;;;;;;9.92;68.79;100122.59;1803481;79;20161;-59
2021/04/23 02:35:59;;;;;;;;;;;;;;;9.93;68.88;100125.05;1798485;79;20129;-59
2021/04/23 02:38:26;;;;;;;;;;;;;;;9.93;68.99;100126.92;1803632;79;20176;-62
2021/04/23 02:40:54;;;;;;;;;;;;;;;9.95;69.09;100129.69;1798770;79;20226;-59
2021/04/23 02:43:26;;;;;;;;;;;;;;;9.99;69.17;100126.84;1806493;78;22292;-59
2021/04/23 02:45:53;;;;;;;;;;;;;;;10.05;69.21;100134.53;1809533;78;20497;-60
2021/04/23 02:48:22;;;;;;;;;;;;;;;10.08;69.18;100139.97;1786824;78;20136;-60
2021/04/23 02:50:53;;;;;;;;;;;;;;;10.09;69.16;100147.78;1784070;78;20593;-59
2021/04/23 02:53:21;;;;;;;;;;;;;;;10.11;69.21;100147.56;1815130;78;20242;-60
2021/04/23 02:55:48;;;;;;;;;;;;;;;10.10;69.20;100142.73;1815217;78;21190;-60
2021/04/23 02:58:19;;;;;;;;;;;;;;;10.08;69.28;100147.47;1815328;78;20142;-59
2021/04/23 03:00:49;;;;;;;;;;;;;;;10.07;69.35;100158.41;1815175;78;20151;-58
2021/04/23 03:03:17;;;;;;;;;;;;;;;10.07;69.41;100162.42;1811747;78;20332;-60
2021/04/23 03:05:46;;;;;;;;;;;;;;;10.07;69.38;100152.55;1817873;77;20330;-58
2021/04/23 03:08:15;;;;;;;;;;;;;;;10.08;69.42;100154.70;1814107;78;21299;-59
2021/04/23 03:10:46;;;;;;;;;;;;;;;10.12;69.45;100158.05;1792791;78;20197;-59
2021/04/23 03:13:16;;;;;;;;;;;;;;;10.17;69.37;100174.80;1794729;80;20231;-59
2021/04/23 03:15:44;;;;;;;;;;;;;;;10.22;69.24;100177.66;1794531;80;20219;-59
2021/04/23 03:18:16;;;;;;;;;;;;;;;10.27;69.14;100179.14;1793785;80;20262;-58
2021/04/23 03:20:44;;;;;;;;;;;;;;;10.29;69.02;100173.06;1793892;80;21192;-58
2021/04/23 03:23:12;;;;;;;;;;;;;;;10.31;68.95;100176.86;1793892;80;20230;-58
2021/04/23 03:25:40;;;;;;;;;;;;;;;10.33;68.82;100175.63;1763228;80;20269;-59
2021/04/23 03:28:08;;;;;;;;;;;;;;;10.34;68.66;100179.93;1793158;80;20484;-59
2021/04/23 03:30:38;;;;;;;;;;;;;;;10.30;68.67;100167.98;1801976;78;20288;-60
2021/04/23 03:33:06;;;;;;;;;;;;;;;10.31;68.68;100163.45;1793381;80;21181;-59
2021/04/23 03:35:34;;;;;;;;;;;;;;;10.34;68.61;100166.53;1793563;79;20131;-59
2021/04/23 03:38:02;;;;;;;;;;;;;;;10.36;68.56;100156.13;1794218;80;20250;-57
2021/04/23 03:40:32;;;;;;;;;;;;;;;10.39;68.55;100159.69;1804014;78;20206;-58
2021/04/23 03:43:00;;;;;;;;;;;;;;;10.40;68.56;100178.77;1815713;78;20688;-59
2021/04/23 03:45:28;;;;;;;;;;;;;;;10.41;68.68;100158.94;1796528;79;21213;-58
2021/04/23 03:47:56;;;;;;;;;;;;;;;10.49;68.70;100164.83;1772164;77;20156;-61
2021/04/23 03:50:25;;;;;;;;;;;;;;;10.60;68.58;100174.02;1794677;79;20231;-60
2021/04/23 03:52:54;;;;;;;;;;;;;;;10.72;68.40;100167.89;1781252;80;20182;-59
2021/04/23 03:55:25;;;;;;;;;;;;;;;10.84;68.24;100179.52;1783099;79;20265;-59
2021/04/23 03:57:53;;;;;;;;;;;;;;;10.93;68.05;100180.04;1784521;79;21350;-61
2021/04/23 04:00:25;;;;;;;;;;;;;;;10.94;67.97;100190.55;1796618;79;20115;-61
2021/04/23 04:02:52;;;;;;;;;;;;;;;10.95;67.85;100193.50;1802217;79;20243;-59
2021/04/23 04:05:20;;;;;;;;;;;;;;;10.99;67.76;100167.06;1802817;79;20167;-61
2021/04/23 04:07:49;;;;;;;;;;;;;;;11.04;67.80;100157.30;1803929;79;20223;-61
2021/04/23 04:10:17;;;;;;;;;;;;;;;11.17;67.94;100186.33;1792933;79;21196;-59
2021/04/23 04:12:46;;;;;;;;;;;;;;;11.25;67.63;100185.19;1790166;79;20220;-60
2021/04/23 04:15:14;;;;;;;;;;;;;;;11.23;67.46;100193.47;1780579;80;20282;-60
2021/04/23 04:17:42;;;;;;;;;;;;;;;11.17;67.45;100196.56;1780374;80;20227;-60
2021/04/23 04:20:13;;;;;;;;;;;;;;;11.13;67.54;100187.82;1794398;79;20245;-59
2021/04/23 04:22:41;;;;;;;;;;;;;;;11.08;67.69;100187.16;1801376;79;21239;-60
2021/04/23 04:25:14;;;;;;;;;;;;;;;11.01;67.79;100194.47;1802470;79;20190;-59
2021/04/23 04:27:42;;;;;;;;;;;;;;;10.95;67.99;100201.55;1766458;79;20236;-60
2021/04/23 04:30:11;;;;;;;;;;;;;;;10.93;68.07;100204.98;1782927;79;20521;-60
2021/04/23 04:32:39;;;;;;;;;;;;;;;10.89;68.12;100202.45;1777669;80;20305;-59
2021/04/23 04:35:08;;;;;;;;;;;;;;;10.88;68.18;100204.86;1778172;80;21122;-60
2021/04/23 04:37:36;;;;;;;;;;;;;;;10.85;68.19;100195.39;1780550;80;20167;-62
2021/04/23 04:40:05;;;;;;;;;;;;;;;10.80;68.18;100199.25;1780298;80;20175;-62
2021/04/23 04:42:34;;;;;;;;;;;;;;;10.75;68.24;100202.30;1779748;80;20497;-60
2021/04/23 04:45:06;;;;;;;;;;;;;;;10.72;68.32;100203.58;1788844;80;20163;-59
2021/04/23 04:47:34;;;;;;;;;;;;;;;10.69;68.42;100198.14;1794399;80;21194;-59
2021/04/23 04:50:04;;;;;;;;;;;;;;;10.92;68.62;100197.17;1794056;78;20230;-61
2021/04/23 04:52:32;;;;;;;;;;;;;;;11.48;68.00;100200.58;1790128;80;20572;-59
2021/04/23 04:55:02;;;;;;;;;;;;;;;12.09;66.94;100203.50;1794234;80;20151;-59
2021/04/23 04:57:29;;;;;;;;;;;;;;;13.15;65.27;100201.22;1793248;80;20259;-60
2021/04/23 04:59:57;;;;;;;;;;;;;;;14.61;61.87;100201.24;1793090;80;21162;-60
2021/04/23 05:02:25;;;;;;;;;;;;;;;15.92;57.70;100206.25;1794010;80;20202;-62
2021/04/23 05:04:53;;;;;;;;;;;;;;;17.10;54.24;100206.16;1793381;80;20213;-63
2021/04/23 05:07:20;;;;;;;;;;;;;;;18.24;51.17;100207.17;1790804;80;20223;-60
2021/04/23 05:09:48;;;;;;;;;;;;;;;19.35;47.61;100203.55;1762574;80;20231;-62
2021/04/23 05:12:16;;;;;;;;;;;;;;;20.21;45.31;100197.75;1794991;80;21192;-62
2021/04/23 05:14:44;;;;;;;;;;;;;;;21.03;43.15;100197.43;1764324;80;20218;-61
2021/04/23 05:17:11;;;;;;;;;;;;;;;21.76;41.61;100195.87;1763679;80;20245;-59
2021/04/23 05:19:40;;;;;;;;;;;;;;;22.18;40.36;100198.18;1793916;80;20245;-60
2021/04/23 05:22:08;;;;;;;;;;;;;;;22.10;40.46;100194.23;1793751;80;20282;-60
2021/04/23 05:24:36;;;;;;;;;;;;;;;22.01;40.32;100200.92;1790508;80;21193;-61
2021/04/23 05:27:04;;;;;;;;;;;;;;;21.56;39.98;100205.20;1793224;80;20528;-62
2021/04/23 05:29:32;;;;;;;;;;;;;;;20.77;40.74;100210.02;1794282;80;20238;-60
2021/04/23 05:32:01;;;;;;;;;;;;;;;19.98;42.46;100211.58;1793882;80;20170;-59
2021/04/23 05:34:31;;;;;;;;;;;;;;;19.68;43.80;100209.30;1792079;80;20268;-60
2021/04/23 05:36:59;;;;;;;;;;;;;;;19.94;43.76;100216.76;1794009;80;20577;-61
2021/04/23 05:39:26;;;;;;;;;;;;;;;20.59;42.82;100207.44;1794442;80;20297;-62
2021/04/23 05:41:55;;;;;;;;;;;;;;;21.38;40.88;100217.67;1789088;80;20387;-59
2021/04/23 05:44:23;;;;;;;;;;;;;;;21.71;40.08;100210.41;1788838;80;20870;-60
2021/04/23 05:46:51;;;;;;;;;;;;;;;21.45;39.97;100218.12;1772855;81;20215;-59
2021/04/23 05:49:19;;;;;;;;;;;;;;;21.03;40.94;100221.95;1749319;80;21187;-61
2021/04/23 05:51:47;;;;;;;;;;;;;;;20.58;41.50;100219.98;1773375;81;20585;-62
2021/04/23 05:54:15;;;;;;;;;;;;;;;20.17;42.62;100221.73;1773186;80;20235;-60
2021/04/23 05:56:43;;;;;;;;;;;;;;;19.67;43.47;100234.06;1737798;81;20231;-59
2021/04/23 05:59:11;;;;;;;;;;;;;;;19.08;44.84;100227.87;1768775;81;20230;-60
2021/04/23 06:01:39;;;;;;;;;;;;;;;18.44;45.98;100230.73;1773430;80;21133;-61
2021/04/23 06:04:07;;;;;;;;;;;;;;;17.88;47.46;100230.18;1772159;81;20270;-60
2021/04/23 06:06:35;;;;;;;;;;;;;;;17.42;49.05;100234.19;1773107;80;20227;-60
2021/04/23 06:09:05;;;;;;;;;;;;;;;17.01;50.26;100227.27;1773261;81;20243;-61
2021/04/23 06:11:34;;;;;;;;;;;;;;;16.67;51.63;100233.83;1772999;81;20231;-60
2021/04/23 06:14:02;;;;;;;;;;;;;;;16.56;52.36;100230.26;1773300;80;21197;-64
2021/04/23 06:16:32;;;;;;;;;;;;;;;16.62;52.78;100240.55;1772380;81;20226;-60
2021/04/23 06:18:59;;;;;;;;;;;;;;;16.60;52.72;100231.89;1772691;81;20270;-62
2021/04/23 06:21:27;;;;;;;;;;;;;;;16.46;52.81;100241.81;1772408;80;20277;-60
2021/04/23 06:23:56;;;;;;;;;;;;;;;16.26;53.25;100238.42;1773193;81;20326;-61
2021/04/23 06:26:24;;;;;;;;;;;;;;;15.98;53.61;100240.90;1773542;81;21486;-60
2021/04/23 06:28:53;;;;;;;;;;;;;;;15.68;54.24;100238.69;1769230;81;20224;-60
2021/04/23 06:31:21;;;;;;;;;;;;;;;15.39;55.15;100232.19;1773212;81;20290;-62
2021/04/23 06:33:51;;;;;;;;;;;;;;;15.15;56.05;100237.03;1773228;80;20410;-61
2021/04/23 06:36:21;;;;;;;;;;;;;;;14.94;56.39;100234.07;1572338;90;20633;-61
2021/04/23 06:38:49;;;;;;;;;;;;;;;14.75;56.61;100238.14;1595117;90;21230;-61
2021/04/23 06:41:17;;;;;;;;;;;;;;;14.62;57.34;100250.09;1594915;90;20273;-61
2021/04/23 06:43:46;;;;;;;;;;;;;;;14.45;57.70;100245.51;1595000;90;20252;-61
2021/04/23 06:46:15;;;;;;;;;;;;;;;14.30;58.21;100245.29;1595148;89;20270;-60
2021/04/23 06:48:48;;;;;;;;;;;;;;;14.14;58.73;100249.61;1594733;88;20553;-61
2021/04/23 06:51:19;;;;;;;;;;;;;;;13.96;59.21;100241.23;1595018;90;21452;-61
2021/04/23 06:53:47;;;;;;;;;;;;;;;13.78;59.37;100243.09;1610454;85;20271;-60
2021/04/23 06:56:15;;;;;;;;;;;;;;;13.63;59.60;100244.14;1670758;84;20363;-61
2021/04/23 06:58:46;;;;;;;;;;;;;;;13.50;60.06;100245.27;1678086;85;20286;-61
2021/04/23 07:01:16;;;;;;;;;;;;;;;13.37;60.42;100238.29;1738688;80;20219;-61
2021/04/23 07:03:45;;;;;;;;;;;;;;;13.25;60.96;100242.34;1782112;80;21136;-60
2021/04/23 07:06:13;;;;;;;;;;;;;;;13.17;61.23;100248.08;1755566;79;20224;-60
2021/04/23 07:08:41;;;;;;;;;;;;;;;13.14;61.46;100248.56;1800476;79;20250;-61
2021/04/23 07:11:09;;;;;;;;;;;;;;;13.10;61.59;100244.20;1755077;80;20202;-61
2021/04/23 07:13:37;;;;;;;;;;;;;;;13.05;61.53;100242.73;1783981;80;20246;-61
2021/04/23 07:16:08;;;;;;;;;;;;;;;13.10;61.65;100244.70;1783695;80;21355;-61
2021/04/23 07:18:39;;;;;;;;;;;;;;;13.17;61.32;100248.08;1784137;80;20660;-60
2021/04/23 07:21:08;;;;;;;;;;;;;;;13.24;61.57;100243.92;1783870;80;20535;-59
2021/04/23 07:23:42;;;;;;;;;;;;;;;13.32;61.49;100248.41;1783792;80;20294;-60
2021/04/23 07:26:10;;;;;;;;;;;;;;;13.40;61.54;100244.53;1783830;80;20242;-62
2021/04/23 07:28:39;;;;;;;;;;;;;;;13.54;61.04;100245.05;1784279;80;20548;-61
2021/04/23 07:31:14;;;;;;;;;;;;;;;13.67;60.93;100250.69;1781442;80;20479;-61
2021/04/23 07:33:45;;;;;;;;;;;;;;;13.87;60.91;100242.67;1782333;80;20132;-60
2021/04/23 07:36:13;;;;;;;;;;;;;;;14.02;60.15;100245.64;1783710;80;21941;-60
2021/04/23 07:38:42;;;;;;;;;;;;;;;14.10;59.78;100244.42;1782719;80;20230;-60
2021/04/23 07:41:12;;;;;;;;;;;;;;;13.99;58.45;100259.07;1752205;80;22057;-59
2021/04/23 07:43:42;;;;;;;;;;;;;;;13.78;58.34;100259.77;1784153;80;20296;-60
2021/04/23 07:46:10;;;;;;;;;;;;;;;13.57;58.39;100249.95;1775940;80;20302;-59
2021/04/23 07:48:40;;;;;;;;;;;;;;;13.52;58.87;100255.80;1773100;79;20301;-61
2021/04/23 07:51:08;;;;;;;;;;;;;;;13.62;58.76;100262.73;1773169;80;20679;-60
2021/04/23 07:53:36;;;;;;;;;;;;;;;13.80;58.05;100265.74;1773163;81;22204;-60
2021/04/23 07:56:05;;;;;;;;;;;;;;;13.90;57.24;100252.96;1749672;81;20221;-61
2021/04/23 07:58:33;;;;;;;;;;;;;;;13.88;56.40;100261.29;1772173;81;20156;-61
2021/04/23 08:01:12;;;;;;;;;;;;;;;13.81;56.41;100257.42;1758317;80;20223;-61
2021/04/23 08:03:42;;;;;;;;;;;;;;;13.83;56.45;100254.48;1773917;79;20219;-62
2021/04/23 08:06:11;;;;;;;;;;;;;;;13.94;55.58;100271.63;1775152;80;21269;-61
2021/04/23 08:08:41;;;;;;;;;;;;;;;13.98;54.00;100268.20;1771012;81;20491;-59
2021/04/23 08:11:10;;;;;;;;;;;;;;;13.81;54.69;100280.31;1742469;81;20234;-59
2021/04/23 08:13:38;;;;;;;;;;;;;;;13.80;55.55;100281.37;1772380;81;20612;-60
2021/04/23 08:16:07;;;;;;;;;;;;;;;13.88;55.06;100283.39;1773280;81;20274;-61
2021/04/23 08:18:35;;;;;;;;;;;;;;;13.89;55.04;100284.48;1773246;81;21185;-60
2021/04/23 08:21:04;;;;;;;;;;;;;;;13.86;54.57;100282.28;1774252;80;20262;-61
2021/04/23 08:23:33;;;;;;;;;;;;;;;13.70;55.07;100285.76;1773382;81;20512;-60
2021/04/23 08:26:03;;;;;;;;;;;;;;;13.57;55.44;100285.51;1773499;79;20230;-59
2021/04/23 08:28:33;;;;;;;;;;;;;;;13.49;55.56;100297.48;1773899;81;20339;-60
2021/04/23 08:31:02;;;;;;;;;;;;;;;13.44;56.05;100290.12;1770213;81;20318;-60
2021/04/23 08:33:31;;;;;;;;;;;;;;;13.49;56.73;100290.22;1773329;81;20669;-60
2021/04/23 08:35:59;;;;;;;;;;;;;;;13.66;56.63;100280.02;1772472;81;20564;-60
2021/04/23 08:38:28;;;;;;;;;;;;;;;13.81;56.24;100288.94;1772844;81;20290;-61
2021/04/23 08:40:57;;;;;;;;;;;;;;;13.94;55.87;100289.98;1773496;81;20286;-60
2021/04/23 08:43:25;;;;;;;;;;;;;;;14.08;54.86;100285.09;1771815;79;21034;-60
2021/04/23 08:45:53;;;;;;;;;;;;;;;14.15;54.51;100289.00;1777210;80;20215;-60
2021/04/23 08:51:56;;;;;;;;;;;;;;;14.19;54.19;100295.52;1776648;80;20226;-60
2021/04/23 08:57:54;;;;;;;;;;;;;;;14.18;54.51;100297.40;1776715;80;21203;-60
2021/04/23 09:00:22;;;;;;;;;;;;;;;14.30;53.93;100302.72;1777575;80;20172;-60
2021/04/23 09:02:50;;;;;;;;;;;;;;;14.37;53.99;100302.57;1779724;80;21021;-60
2021/04/23 09:05:19;;;;;;;;;;;;;;;14.40;53.04;100298.03;1780317;80;20210;-59
2021/04/23 09:08:01;;;;;;;;;;;;;;;14.33;53.16;100298.18;1779612;80;20255;-59
2021/04/23 09:10:31;;;;;;;;;;;;;;;14.23;53.02;100299.36;1780284;80;21184;-59
2021/04/23 09:13:15;;;;;;;;;;;;;;;14.11;53.24;100316.14;1780454;80;20247;-60
2021/04/23 09:15:44;;;;;;;;;;;;;;;13.99;53.52;100315.66;1778978;80;20258;-62
2021/04/23 09:18:16;;;;;;;;;;;;;;;13.88;53.60;100317.06;1682540;83;20240;-59
2021/04/23 09:20:49;;;;;;;;;;;;;;;13.76;53.83;100320.62;1681808;84;20348;-60
2021/04/23 09:23:21;;;;;;;;;;;;;;;13.66;53.91;100322.61;1677510;84;21422;-60
2021/04/23 09:25:51;;;;;;;;;;;;;;;13.58;53.98;100319.47;1678352;84;20581;-59
2021/04/23 09:28:41;;;;;;;;;;;;;;;13.46;53.63;100323.55;1676916;84;20243;-59
2021/04/23 09:31:27;;;;;;;;;;;;;;;13.27;53.74;100323.66;1682133;84;20268;-60
2021/04/23 09:34:02;;;;;;;;;;;;;;;13.14;54.71;100324.72;1678451;84;20258;-59
2021/04/23 09:36:38;;;;;;;;;;;;;;;13.11;54.66;100325.20;1736410;80;21381;-59
2021/04/23 09:39:18;;;;;;;;;;;;;;;13.05;54.73;100319.95;1749240;80;20147;-60
2021/04/23 09:41:49;;;;;;;;;;;;;;;12.97;54.83;100320.61;1780472;80;20166;-60
2021/04/23 09:44:37;;;;;;;;;;;;;;;12.86;54.84;100326.80;1777104;80;20294;-61
2021/04/23 09:47:14;;;;;;;;;;;;;;;12.85;55.11;100337.80;1773515;80;20191;-61
2021/04/23 09:49:43;;;;;;;;;;;;;;;12.86;55.67;100328.68;1772621;80;21383;-58
2021/04/23 09:52:15;;;;;;;;;;;;;;;12.89;55.33;100322.30;1772854;81;20627;-60
2021/04/23 09:54:50;;;;;;;;;;;;;;;12.86;55.07;100322.77;1772215;81;20227;-62
2021/04/23 09:57:21;;;;;;;;;;;;;;;12.80;54.96;100323.17;1749812;81;20230;-61
2021/04/23 09:59:54;;;;;;;;;;;;;;;12.76;55.32;100323.88;1775323;79;20231;-61
2021/04/23 10:02:24;;;;;;;;;;;;;;;12.68;54.79;100322.89;1786482;79;21181;-59
2021/04/23 10:04:52;;;;;;;;;;;;;;;12.59;54.80;100324.57;1795614;78;20316;-59
2021/04/23 10:07:23;;;;;;;;;;;;;;;12.53;55.26;100316.59;1790242;79;20215;-59
2021/04/23 10:09:57;;;;;;;;;;;;;;;12.54;55.41;100319.05;1778036;79;20223;-59
2021/04/23 10:12:37;;;;;;;;;;;;;;;12.63;55.80;100312.81;1772542;80;20302;-60
2021/04/23 10:15:23;;;;;;;;;;;;;;;12.71;54.91;100313.02;1757342;79;20153;-60
2021/04/23 10:18:06;;;;;;;;;;;;;;;12.71;55.03;100311.13;1749135;81;20211;-59
2021/04/23 10:20:40;;;;;;;;;;;;;;;12.73;54.99;100300.94;1749014;81;20494;-60
2021/04/23 10:23:10;;;;;;;;;;;;;;;12.74;54.50;100300.44;1772885;81;20629;-58
2021/04/23 10:25:38;;;;;;;;;;;;;;;12.72;54.52;100292.61;1749257;81;20239;-59
2021/04/23 10:28:09;;;;;;;;;;;;;;;12.75;55.05;100295.33;1772930;80;22048;-58
2021/04/23 10:30:41;;;;;;;;;;;;;;;12.84;55.03;100299.83;1781275;79;20333;-58
2021/04/23 10:33:21;;;;;;;;;;;;;;;12.88;54.64;100294.28;1780872;79;20199;-62
2021/04/23 10:35:50;;;;;;;;;;;;;;;12.86;54.15;100286.98;1792608;79;20198;-59
2021/04/23 10:38:20;;;;;;;;;;;;;;;12.74;54.02;100293.17;1792570;79;20288;-60
2021/04/23 10:40:58;;;;;;;;;;;;;;;12.62;54.36;100287.80;1774496;79;21201;-59
2021/04/23 10:43:28;;;;;;;;;;;;;;;12.60;54.73;100273.78;1770240;81;20298;-61
2021/04/23 10:46:14;;;;;;;;;;;;;;;12.63;54.38;100269.78;1772973;80;20266;-60
2021/04/23 10:48:44;;;;;;;;;;;;;;;12.63;54.50;100264.40;1780378;79;20304;-58
2021/04/23 10:51:23;;;;;;;;;;;;;;;12.72;54.72;100259.48;1774010;79;20505;-59
2021/04/23 10:53:52;;;;;;;;;;;;;;;12.88;54.18;100258.80;1771093;81;21209;-59
2021/04/23 10:56:33;;;;;;;;;;;;;;;13.01;54.28;100252.32;1771948;81;20580;-59
2021/04/23 10:59:05;;;;;;;;;;;;;;;13.17;54.27;100258.04;1773108;80;20501;-58
2021/04/23 11:05:05;;;;;;;;;;;;;;;13.36;53.24;100254.69;1772806;81;20199;-61
2021/04/23 11:11:12;;;;;;;;;;;;;;;13.38;52.55;100249.86;1775113;79;20148;-58
2021/04/23 11:17:20;;;;;;;;;;;;;;;13.24;52.55;100254.15;1776760;79;20196;-61
2021/04/23 11:23:18;;;;;;;;;;;;;;;13.06;52.52;100260.52;1773020;81;20159;-59
2021/04/23 11:29:17;;;;;;;;;;;;;;;12.86;52.89;100261.42;1773044;81;20587;-60
2021/04/23 11:32:07;;;;;;;;;;;;;;;12.73;52.88;100247.69;1773773;81;20332;-60
2021/04/23 11:34:39;;;;;;;;;;;;;;;12.52;52.62;100247.23;1689407;84;20277;-59
2021/04/23 11:37:18;;;;;;;;;;;;;;;12.30;53.10;100246.98;1690105;84;21227;-60
2021/04/23 11:40:14;;;;;;;;;;;;;;;12.20;53.56;100246.73;1817181;77;20239;-60
2021/04/23 11:42:46;;;;;;;;;;;;;;;12.12;54.08;100249.25;1801546;79;20234;-60
2021/04/23 11:45:17;;;;;;;;;;;;;;;12.07;53.66;100243.73;1802025;79;21189;-60
2021/04/23 11:47:47;;;;;;;;;;;;;;;12.09;53.98;100245.67;1802139;79;20153;-59
2021/04/23 11:50:29;;;;;;;;;;;;;;;12.23;54.02;100240.89;1682296;84;20237;-58
2021/04/23 11:53:11;;;;;;;;;;;;;;;12.40;53.78;100237.01;1685606;85;20225;-59
2021/04/23 11:55:45;;;;;;;;;;;;;;;12.52;53.30;100237.01;1685043;85;20221;-60
2021/04/23 11:58:15;;;;;;;;;;;;;;;12.61;53.67;100236.41;1684471;85;21405;-58
2021/04/23 12:00:45;;;;;;;;;;;;;;;12.66;53.22;100238.41;1683864;84;20147;-60
2021/04/23 12:03:19;;;;;;;;;;;;;;;12.71;52.90;100231.78;1683370;85;20586;-62
2021/04/23 12:05:48;;;;;;;;;;;;;;;12.70;52.68;100243.59;1683573;84;20269;-60
2021/04/23 12:08:18;;;;;;;;;;;;;;;12.66;52.40;100240.27;1737890;79;20397;-59
2021/04/23 12:10:48;;;;;;;;;;;;;;;12.55;52.43;100245.41;1803341;79;21249;-58
2021/04/23 12:13:38;;;;;;;;;;;;;;;12.43;52.75;100246.75;1769096;79;20334;-59
2021/04/23 12:16:11;;;;;;;;;;;;;;;12.34;53.31;100252.19;1805344;79;20194;-60
2021/04/23 12:18:43;;;;;;;;;;;;;;;12.29;53.24;100256.63;1801137;79;20151;-63
2021/04/23 12:21:11;;;;;;;;;;;;;;;12.18;53.60;100252.34;1800430;77;20135;-61
2021/04/23 12:23:39;;;;;;;;;;;;;;;12.13;54.20;100254.92;1803202;79;21429;-62
2021/04/23 12:26:08;;;;;;;;;;;;;;;12.10;53.98;100255.35;1801607;79;20580;-61
2021/04/23 12:28:41;;;;;;;;;;;;;;;12.07;54.38;100255.82;1801888;79;20532;-60
2021/04/23 12:34:39;;;;;;;;;;;;;;;11.94;54.54;100263.58;1802664;79;20164;-59
2021/04/23 12:44:06;;;;;;;;;;;;;;;11.91;54.40;100259.45;1752893;81;20221;-58
2021/04/23 12:50:06;;;;;;;;;;;;;;;11.94;54.81;100274.83;1754058;81;20322;-57
2021/04/23 12:56:04;;;;;;;;;;;;;;;11.94;55.21;100253.34;1750114;81;20170;-56
2021/04/23 13:02:02;;;;;;;;;;;;;;;12.02;54.99;100243.08;1751133;81;20603;-56
2021/04/23 13:08:03;;;;;;;;;;;;;;;12.02;54.91;100250.34;1749859;81;21208;-59
2021/04/23 13:14:20;;;;;;;;;;;;;;;11.98;54.03;100241.90;1749788;81;20526;-58
2021/04/23 13:20:30;;;;;;;;;;;;;;;11.96;53.72;100237.30;1750073;81;20170;-61
2021/04/23 13:26:31;;;;;;;;;;;;;;;11.81;54.38;100259.72;1752475;79;20170;-59
2021/04/23 13:32:56;;;;;;;;;;;;;;;11.75;54.96;100254.20;1751527;81;20175;-59
2021/04/23 13:35:28;;;;;;;;;;;;;;;11.74;54.97;100245.84;1750286;81;20300;-59
2021/04/23 13:37:58;;;;;;;;;;;;;;;11.70;55.02;100241.16;1749519;81;21271;-59
2021/04/23 13:40:27;;;;;;;;;;;;;;;11.67;55.37;100245.11;1751399;80;20268;-59
2021/04/23 13:43:09;;;;;;;;;;;;;;;11.68;55.54;100249.44;1786257;79;20207;-58
2021/04/23 13:45:37;;;;;;;;;;;;;;;11.71;55.41;100245.48;1792763;79;20250;-59
2021/04/23 13:48:16;;;;;;;;;;;;;;;11.71;55.18;100234.75;1789754;79;20160;-59
2021/04/23 13:50:44;;;;;;;;;;;;;;;11.70;55.41;100237.97;1777542;79;21414;-58
2021/04/23 13:53:12;;;;;;;;;;;;;;;11.71;55.31;100236.09;1789304;79;20145;-60
2021/04/23 13:56:02;;;;;;;;;;;;;;;11.73;55.20;100242.88;1790769;79;20216;-58
2021/04/23 13:58:31;;;;;;;;;;;;;;;11.73;54.77;100242.88;1792305;79;20291;-59